sensor_id;sensor_type;location;lat;lon;timestamp;P1;P2;P0
62631;PMS5003;48703;51.248;-0.546;2023-04-03T00:01:46;4.56;4.56;
62631;PMS5003;48703;51.248;-0.546;2023-04-03T00:04:48;6.14;4.76;
62631;PMS5003;48703;51.248;-0.546;2023-04-03T00:07:49;5.40;4.84;
62631;PMS5003;48703;51.248;-0.546;2023-04-03T00:10:51;4.63;3.50;
62631;PMS5003;48703;51.248;-0.546;2023-04-03T00:13:53;5.33;4.43;
62631;PMS5003;48703;51.248;-0.546;2023-04-03T00:16:55;6.26;4.73;
62631;PMS5003;48703;51.248;-0.546;2023-04-03T00:19:57;4.80;4.71;
62631;PMS5003;48703;51.248;-0.546;2023-04-03T00:22:59;4.53;4.53;
62631;PMS5003;48703;51.248;-0.546;2023-04-03T00:26:01;5.06;3.89;
62631;PMS5003;48703;51.248;-0.546;2023-04-03T00:29:03;4.56;4.30;
62631;PMS5003;48703;51.248;-0.546;2023-04-03T00:32:05;5.76;4.71;
62631;PMS5003;48703;51.248;-0.546;2023-04-03T00:35:07;6.20;5.83;
62631;PMS5003;48703;51.248;-0.546;2023-04-03T00:38:08;5.60;4.93;
62631;PMS5003;48703;51.248;-0.546;2023-04-03T00:41:10;5.90;5.20;
62631;PMS5003;48703;51.248;-0.546;2023-04-03T00:44:20;4.40;2.87;
62631;PMS5003;48703;51.248;-0.546;2023-04-03T00:47:15;5.93;4.46;
62631;PMS5003;48703;51.248;-0.546;2023-04-03T00:50:15;4.87;4.87;
62631;PMS5003;48703;51.248;-0.546;2023-04-03T00:53:17;6.83;5.73;
62631;PMS5003;48703;51.248;-0.546;2023-04-03T00:56:19;4.71;4.71;
62631;PMS5003;48703;51.248;-0.546;2023-04-03T00:59:22;6.96;6.74;
62631;PMS5003;48703;51.248;-0.546;2023-04-03T01:02:22;5.56;5.39;
62631;PMS5003;48703;51.248;-0.546;2023-04-03T01:05:24;4.59;4.54;
62631;PMS5003;48703;51.248;-0.546;2023-04-03T01:08:26;7.17;6.01;
62631;PMS5003;48703;51.248;-0.546;2023-04-03T01:11:28;5.01;4.19;
62631;PMS5003;48703;51.248;-0.546;2023-04-03T01:14:30;4.89;4.46;
62631;PMS5003;48703;51.248;-0.546;2023-04-03T01:17:32;6.30;5.46;
62631;PMS5003;48703;51.248;-0.546;2023-04-03T01:23:38;5.16;5.11;
62631;PMS5003;48703;51.248;-0.546;2023-04-03T01:26:37;7.39;5.00;
62631;PMS5003;48703;51.248;-0.546;2023-04-03T01:29:39;4.59;4.00;
62631;PMS5003;48703;51.248;-0.546;2023-04-03T01:32:41;5.63;5.19;
62631;PMS5003;48703;51.248;-0.546;2023-04-03T01:35:43;4.73;4.73;
62631;PMS5003;48703;51.248;-0.546;2023-04-03T01:38:45;6.43;4.96;
62631;PMS5003;48703;51.248;-0.546;2023-04-03T01:41:47;4.63;3.80;
62631;PMS5003;48703;51.248;-0.546;2023-04-03T01:44:49;5.74;4.20;
62631;PMS5003;48703;51.248;-0.546;2023-04-03T01:47:51;5.50;4.59;
62631;PMS5003;48703;51.248;-0.546;2023-04-03T01:50:53;4.97;4.63;
62631;PMS5003;48703;51.248;-0.546;2023-04-03T01:53:55;4.24;4.00;
62631;PMS5003;48703;51.248;-0.546;2023-04-03T01:56:57;7.13;5.97;
62631;PMS5003;48703;51.248;-0.546;2023-04-03T01:59:58;7.16;4.81;
62631;PMS5003;48703;51.248;-0.546;2023-04-03T02:03:00;4.87;3.80;
62631;PMS5003;48703;51.248;-0.546;2023-04-03T02:06:02;5.30;4.30;
62631;PMS5003;48703;51.248;-0.546;2023-04-03T02:09:04;4.47;3.69;
62631;PMS5003;48703;51.248;-0.546;2023-04-03T02:12:06;5.06;4.67;
62631;PMS5003;48703;51.248;-0.546;2023-04-03T02:15:08;5.07;4.17;
62631;PMS5003;48703;51.248;-0.546;2023-04-03T02:18:10;4.26;3.99;
62631;PMS5003;48703;51.248;-0.546;2023-04-03T02:21:12;4.00;3.91;
62631;PMS5003;48703;51.248;-0.546;2023-04-03T02:24:14;4.61;3.87;
62631;PMS5003;48703;51.248;-0.546;2023-04-03T02:27:16;4.93;4.30;
62631;PMS5003;48703;51.248;-0.546;2023-04-03T02:30:18;5.20;4.14;
62631;PMS5003;48703;51.248;-0.546;2023-04-03T02:33:20;4.51;4.16;
62631;PMS5003;48703;51.248;-0.546;2023-04-03T02:36:20;5.54;3.81;
62631;PMS5003;48703;51.248;-0.546;2023-04-03T02:39:22;4.19;3.89;
62631;PMS5003;48703;51.248;-0.546;2023-04-03T02:42:24;4.63;3.69;
62631;PMS5003;48703;51.248;-0.546;2023-04-03T02:45:26;4.81;4.30;
62631;PMS5003;48703;51.248;-0.546;2023-04-03T02:48:28;4.39;4.39;
62631;PMS5003;48703;51.248;-0.546;2023-04-03T02:51:30;4.27;3.91;
62631;PMS5003;48703;51.248;-0.546;2023-04-03T02:54:32;5.17;4.41;
62631;PMS5003;48703;51.248;-0.546;2023-04-03T02:57:34;4.33;3.86;
62631;PMS5003;48703;51.248;-0.546;2023-04-03T03:00:36;5.51;4.51;
62631;PMS5003;48703;51.248;-0.546;2023-04-03T03:03:38;5.84;4.20;
62631;PMS5003;48703;51.248;-0.546;2023-04-03T03:06:40;4.04;3.40;
62631;PMS5003;48703;51.248;-0.546;2023-04-03T03:09:42;6.13;4.03;
62631;PMS5003;48703;51.248;-0.546;2023-04-03T03:12:44;4.51;3.87;
62631;PMS5003;48703;51.248;-0.546;2023-04-03T03:15:46;3.89;3.64;
62631;PMS5003;48703;51.248;-0.546;2023-04-03T03:18:48;3.97;3.97;
62631;PMS5003;48703;51.248;-0.546;2023-04-03T03:21:50;4.37;4.33;
62631;PMS5003;48703;51.248;-0.546;2023-04-03T03:24:52;6.41;4.71;
62631;PMS5003;48703;51.248;-0.546;2023-04-03T03:27:54;3.91;3.74;
62631;PMS5003;48703;51.248;-0.546;2023-04-03T03:30:56;5.10;4.33;
62631;PMS5003;48703;51.248;-0.546;2023-04-03T03:33:57;4.49;4.43;
62631;PMS5003;48703;51.248;-0.546;2023-04-03T03:36:59;5.21;4.01;
62631;PMS5003;48703;51.248;-0.546;2023-04-03T03:40:02;4.11;3.94;
62631;PMS5003;48703;51.248;-0.546;2023-04-03T03:43:03;3.96;3.96;
62631;PMS5003;48703;51.248;-0.546;2023-04-03T03:46:05;4.66;4.19;
62631;PMS5003;48703;51.248;-0.546;2023-04-03T03:49:07;4.81;4.26;
62631;PMS5003;48703;51.248;-0.546;2023-04-03T03:52:09;3.40;3.40;
62631;PMS5003;48703;51.248;-0.546;2023-04-03T03:55:11;5.33;4.76;
62631;PMS5003;48703;51.248;-0.546;2023-04-03T03:58:13;4.06;3.91;
62631;PMS5003;48703;51.248;-0.546;2023-04-03T04:01:15;4.60;3.79;
62631;PMS5003;48703;51.248;-0.546;2023-04-03T04:04:17;4.31;3.76;
62631;PMS5003;48703;51.248;-0.546;2023-04-03T04:07:19;4.44;4.40;
62631;PMS5003;48703;51.248;-0.546;2023-04-03T04:10:21;5.43;4.81;
62631;PMS5003;48703;51.248;-0.546;2023-04-03T04:13:23;3.89;3.26;
62631;PMS5003;48703;51.248;-0.546;2023-04-03T04:16:25;4.60;4.60;
62631;PMS5003;48703;51.248;-0.546;2023-04-03T04:19:27;3.46;3.46;
62631;PMS5003;48703;51.248;-0.546;2023-04-03T04:22:29;4.56;3.91;
62631;PMS5003;48703;51.248;-0.546;2023-04-03T04:25:30;6.16;5.14;
62631;PMS5003;48703;51.248;-0.546;2023-04-03T04:28:32;3.93;3.59;
62631;PMS5003;48703;51.248;-0.546;2023-04-03T04:31:34;5.21;5.17;
62631;PMS5003;48703;51.248;-0.546;2023-04-03T04:34:36;4.67;3.96;
62631;PMS5003;48703;51.248;-0.546;2023-04-03T04:37:38;4.50;3.27;
62631;PMS5003;48703;51.248;-0.546;2023-04-03T04:40:40;5.41;5.24;
62631;PMS5003;48703;51.248;-0.546;2023-04-03T04:43:42;4.43;4.04;
62631;PMS5003;48703;51.248;-0.546;2023-04-03T04:46:44;4.03;3.46;
62631;PMS5003;48703;51.248;-0.546;2023-04-03T04:49:46;3.91;3.36;
62631;PMS5003;48703;51.248;-0.546;2023-04-03T04:52:48;2.57;2.49;
62631;PMS5003;48703;51.248;-0.546;2023-04-03T04:55:50;4.36;3.76;
62631;PMS5003;48703;51.248;-0.546;2023-04-03T04:58:52;3.70;3.09;
62631;PMS5003;48703;51.248;-0.546;2023-04-03T05:01:54;3.23;3.23;
62631;PMS5003;48703;51.248;-0.546;2023-04-03T05:04:55;5.10;4.29;
62631;PMS5003;48703;51.248;-0.546;2023-04-03T05:07:57;5.39;3.81;
62631;PMS5003;48703;51.248;-0.546;2023-04-03T05:10:59;6.09;4.76;
62631;PMS5003;48703;51.248;-0.546;2023-04-03T05:14:01;4.11;3.74;
62631;PMS5003;48703;51.248;-0.546;2023-04-03T05:17:03;4.51;4.09;
62631;PMS5003;48703;51.248;-0.546;2023-04-03T05:20:06;5.39;5.23;
62631;PMS5003;48703;51.248;-0.546;2023-04-03T05:23:08;4.41;4.41;
62631;PMS5003;48703;51.248;-0.546;2023-04-03T05:26:09;4.83;4.64;
62631;PMS5003;48703;51.248;-0.546;2023-04-03T05:29:11;5.77;5.66;
62631;PMS5003;48703;51.248;-0.546;2023-04-03T05:32:13;5.87;5.06;
62631;PMS5003;48703;51.248;-0.546;2023-04-03T05:35:15;4.61;4.57;
62631;PMS5003;48703;51.248;-0.546;2023-04-03T05:38:17;5.63;4.81;
62631;PMS5003;48703;51.248;-0.546;2023-04-03T05:41:19;6.13;6.13;
62631;PMS5003;48703;51.248;-0.546;2023-04-03T05:44:21;6.07;6.00;
62631;PMS5003;48703;51.248;-0.546;2023-04-03T05:47:23;10.06;8.63;
62631;PMS5003;48703;51.248;-0.546;2023-04-03T05:50:25;7.94;7.30;
62631;PMS5003;48703;51.248;-0.546;2023-04-03T05:53:27;8.43;7.14;
62631;PMS5003;48703;51.248;-0.546;2023-04-03T05:56:28;8.09;7.79;
62631;PMS5003;48703;51.248;-0.546;2023-04-03T05:59:30;9.24;8.43;
62631;PMS5003;48703;51.248;-0.546;2023-04-03T06:02:32;8.03;7.57;
62631;PMS5003;48703;51.248;-0.546;2023-04-03T06:05:34;9.74;8.43;
62631;PMS5003;48703;51.248;-0.546;2023-04-03T06:08:36;10.19;9.74;
62631;PMS5003;48703;51.248;-0.546;2023-04-03T06:11:38;11.46;10.64;
62631;PMS5003;48703;51.248;-0.546;2023-04-03T06:14:39;12.57;11.32;
62631;PMS5003;48703;51.248;-0.546;2023-04-03T06:17:41;11.72;10.45;
62631;PMS5003;48703;51.248;-0.546;2023-04-03T06:20:43;15.04;13.63;
62631;PMS5003;48703;51.248;-0.546;2023-04-03T06:23:45;15.72;14.03;
62631;PMS5003;48703;51.248;-0.546;2023-04-03T06:26:47;12.01;11.57;
62631;PMS5003;48703;51.248;-0.546;2023-04-03T06:29:48;16.80;14.17;
62631;PMS5003;48703;51.248;-0.546;2023-04-03T06:32:50;19.86;16.70;
62631;PMS5003;48703;51.248;-0.546;2023-04-03T06:35:55;15.64;14.04;
62631;PMS5003;48703;51.248;-0.546;2023-04-03T06:38:54;18.01;16.16;
62631;PMS5003;48703;51.248;-0.546;2023-04-03T06:41:55;17.86;16.17;
62631;PMS5003;48703;51.248;-0.546;2023-04-03T06:44:57;18.09;16.33;
62631;PMS5003;48703;51.248;-0.546;2023-04-03T06:47:58;20.29;19.41;
62631;PMS5003;48703;51.248;-0.546;2023-04-03T06:51:00;19.50;17.29;
62631;PMS5003;48703;51.248;-0.546;2023-04-03T06:54:03;18.26;16.16;
62631;PMS5003;48703;51.248;-0.546;2023-04-03T06:57:03;17.74;16.25;
62631;PMS5003;48703;51.248;-0.546;2023-04-03T07:00:05;12.16;11.56;
62631;PMS5003;48703;51.248;-0.546;2023-04-03T07:03:07;15.21;13.46;
62631;PMS5003;48703;51.248;-0.546;2023-04-03T07:06:09;14.84;13.20;
62631;PMS5003;48703;51.248;-0.546;2023-04-03T07:09:10;14.23;12.39;
62631;PMS5003;48703;51.248;-0.546;2023-04-03T07:12:12;13.67;12.63;
62631;PMS5003;48703;51.248;-0.546;2023-04-03T07:15:14;15.27;12.49;
62631;PMS5003;48703;51.248;-0.546;2023-04-03T07:18:16;15.13;13.80;
62631;PMS5003;48703;51.248;-0.546;2023-04-03T07:21:18;14.51;12.83;
62631;PMS5003;48703;51.248;-0.546;2023-04-03T07:24:19;14.99;13.14;
62631;PMS5003;48703;51.248;-0.546;2023-04-03T07:27:21;15.90;14.43;
62631;PMS5003;48703;51.248;-0.546;2023-04-03T07:30:23;15.86;14.61;
62631;PMS5003;48703;51.248;-0.546;2023-04-03T07:33:24;16.87;15.19;
62631;PMS5003;48703;51.248;-0.546;2023-04-03T07:36:26;13.06;12.20;
62631;PMS5003;48703;51.248;-0.546;2023-04-03T07:39:28;15.21;14.13;
62631;PMS5003;48703;51.248;-0.546;2023-04-03T07:42:30;16.23;14.07;
62631;PMS5003;48703;51.248;-0.546;2023-04-03T07:45:33;18.77;16.22;
62631;PMS5003;48703;51.248;-0.546;2023-04-03T07:48:33;19.09;15.96;
62631;PMS5003;48703;51.248;-0.546;2023-04-03T07:51:35;15.91;15.13;
62631;PMS5003;48703;51.248;-0.546;2023-04-03T07:54:37;15.76;14.86;
62631;PMS5003;48703;51.248;-0.546;2023-04-03T07:57:38;15.87;13.35;
62631;PMS5003;48703;51.248;-0.546;2023-04-03T08:00:39;13.24;12.17;
62631;PMS5003;48703;51.248;-0.546;2023-04-03T08:03:41;13.70;12.50;
62631;PMS5003;48703;51.248;-0.546;2023-04-03T08:06:43;13.89;12.99;
62631;PMS5003;48703;51.248;-0.546;2023-04-03T08:09:45;14.49;13.06;
62631;PMS5003;48703;51.248;-0.546;2023-04-03T08:12:47;14.37;12.11;
62631;PMS5003;48703;51.248;-0.546;2023-04-03T08:15:48;16.54;14.77;
62631;PMS5003;48703;51.248;-0.546;2023-04-03T08:18:50;12.64;11.81;
62631;PMS5003;48703;51.248;-0.546;2023-04-03T08:21:52;12.87;12.81;
62631;PMS5003;48703;51.248;-0.546;2023-04-03T08:24:53;11.11;10.44;
62631;PMS5003;48703;51.248;-0.546;2023-04-03T08:27:55;12.26;11.07;
62631;PMS5003;48703;51.248;-0.546;2023-04-03T08:31:01;12.77;12.01;
62631;PMS5003;48703;51.248;-0.546;2023-04-03T08:33:59;12.84;12.22;
62631;PMS5003;48703;51.248;-0.546;2023-04-03T08:37:00;12.53;12.36;
62631;PMS5003;48703;51.248;-0.546;2023-04-03T08:40:02;14.19;12.21;
62631;PMS5003;48703;51.248;-0.546;2023-04-03T08:43:10;17.04;14.91;
62631;PMS5003;48703;51.248;-0.546;2023-04-03T08:46:06;13.44;11.99;
62631;PMS5003;48703;51.248;-0.546;2023-04-03T08:49:10;12.33;11.60;
62631;PMS5003;48703;51.248;-0.546;2023-04-03T08:52:09;15.06;12.96;
62631;PMS5003;48703;51.248;-0.546;2023-04-03T08:55:14;13.99;12.09;
62631;PMS5003;48703;51.248;-0.546;2023-04-03T08:58:14;14.80;11.99;
62631;PMS5003;48703;51.248;-0.546;2023-04-03T09:01:17;16.04;15.21;
62631;PMS5003;48703;51.248;-0.546;2023-04-03T09:04:16;14.39;12.91;
62631;PMS5003;48703;51.248;-0.546;2023-04-03T09:07:19;16.30;15.23;
62631;PMS5003;48703;51.248;-0.546;2023-04-03T09:10:23;20.16;18.83;
62631;PMS5003;48703;51.248;-0.546;2023-04-03T09:13:24;16.49;14.47;
62631;PMS5003;48703;51.248;-0.546;2023-04-03T09:16:27;14.69;13.89;
62631;PMS5003;48703;51.248;-0.546;2023-04-03T09:19:27;14.73;14.73;
62631;PMS5003;48703;51.248;-0.546;2023-04-03T09:22:27;16.55;14.90;
62631;PMS5003;48703;51.248;-0.546;2023-04-03T09:25:29;16.53;15.83;
62631;PMS5003;48703;51.248;-0.546;2023-04-03T09:28:29;16.81;16.46;
62631;PMS5003;48703;51.248;-0.546;2023-04-03T09:31:35;15.07;14.34;
62631;PMS5003;48703;51.248;-0.546;2023-04-03T09:34:32;18.20;16.21;
62631;PMS5003;48703;51.248;-0.546;2023-04-03T09:37:36;18.91;16.94;
62631;PMS5003;48703;51.248;-0.546;2023-04-03T09:40:36;19.20;17.71;
62631;PMS5003;48703;51.248;-0.546;2023-04-03T09:43:37;19.84;16.86;
62631;PMS5003;48703;51.248;-0.546;2023-04-03T09:46:38;18.97;17.41;
62631;PMS5003;48703;51.248;-0.546;2023-04-03T09:49:40;18.74;17.61;
62631;PMS5003;48703;51.248;-0.546;2023-04-03T09:52:43;22.35;21.30;
62631;PMS5003;48703;51.248;-0.546;2023-04-03T09:55:44;21.30;19.78;
62631;PMS5003;48703;51.248;-0.546;2023-04-03T09:58:46;20.27;18.27;
62631;PMS5003;48703;51.248;-0.546;2023-04-03T10:01:56;18.52;16.33;
62631;PMS5003;48703;51.248;-0.546;2023-04-03T10:04:48;20.19;18.45;
62631;PMS5003;48703;51.248;-0.546;2023-04-03T10:07:49;22.73;19.81;
62631;PMS5003;48703;51.248;-0.546;2023-04-03T10:11:08;21.39;19.20;
62631;PMS5003;48703;51.248;-0.546;2023-04-03T10:13:54;19.20;17.87;
62631;PMS5003;48703;51.248;-0.546;2023-04-03T10:16:57;20.32;18.17;
62631;PMS5003;48703;51.248;-0.546;2023-04-03T10:19:57;21.00;20.39;
62631;PMS5003;48703;51.248;-0.546;2023-04-03T10:23:00;23.11;20.14;
62631;PMS5003;48703;51.248;-0.546;2023-04-03T10:26:02;21.64;19.77;
62631;PMS5003;48703;51.248;-0.546;2023-04-03T10:29:02;22.63;22.44;
62631;PMS5003;48703;51.248;-0.546;2023-04-03T10:32:02;22.70;20.55;
62631;PMS5003;48703;51.248;-0.546;2023-04-03T10:35:06;20.19;18.74;
62631;PMS5003;48703;51.248;-0.546;2023-04-03T10:38:08;22.00;19.58;
62631;PMS5003;48703;51.248;-0.546;2023-04-03T10:41:07;21.63;19.90;
62631;PMS5003;48703;51.248;-0.546;2023-04-03T10:44:12;22.56;20.44;
62631;PMS5003;48703;51.248;-0.546;2023-04-03T10:47:11;21.04;20.65;
62631;PMS5003;48703;51.248;-0.546;2023-04-03T10:50:20;24.65;22.12;
62631;PMS5003;48703;51.248;-0.546;2023-04-03T10:53:15;22.71;21.56;
62631;PMS5003;48703;51.248;-0.546;2023-04-03T10:56:15;21.10;20.44;
62631;PMS5003;48703;51.248;-0.546;2023-04-03T10:59:18;19.90;18.84;
62631;PMS5003;48703;51.248;-0.546;2023-04-03T11:02:21;20.64;19.10;
62631;PMS5003;48703;51.248;-0.546;2023-04-03T11:05:21;19.06;18.46;
62631;PMS5003;48703;51.248;-0.546;2023-04-03T11:08:24;17.57;16.59;
62631;PMS5003;48703;51.248;-0.546;2023-04-03T11:11:24;18.41;18.00;
62631;PMS5003;48703;51.248;-0.546;2023-04-03T11:14:26;22.56;19.97;
62631;PMS5003;48703;51.248;-0.546;2023-04-03T11:17:31;19.81;18.94;
62631;PMS5003;48703;51.248;-0.546;2023-04-03T11:20:29;19.89;18.19;
62631;PMS5003;48703;51.248;-0.546;2023-04-03T11:23:30;20.64;19.67;
62631;PMS5003;48703;51.248;-0.546;2023-04-03T11:26:31;21.07;19.90;
62631;PMS5003;48703;51.248;-0.546;2023-04-03T11:29:34;22.36;21.23;
62631;PMS5003;48703;51.248;-0.546;2023-04-03T11:32:41;22.89;21.64;
62631;PMS5003;48703;51.248;-0.546;2023-04-03T11:35:36;21.93;20.51;
62631;PMS5003;48703;51.248;-0.546;2023-04-03T11:38:38;20.47;19.90;
62631;PMS5003;48703;51.248;-0.546;2023-04-03T11:41:39;17.13;16.44;
62631;PMS5003;48703;51.248;-0.546;2023-04-03T11:44:41;18.10;17.60;
62631;PMS5003;48703;51.248;-0.546;2023-04-03T11:47:01;19.74;19.52;
62631;PMS5003;48703;51.248;-0.546;2023-04-03T11:50:04;18.88;18.25;
62631;PMS5003;48703;51.248;-0.546;2023-04-03T11:52:56;17.61;16.43;
62631;PMS5003;48703;51.248;-0.546;2023-04-03T11:55:54;18.10;17.30;
62631;PMS5003;48703;51.248;-0.546;2023-04-03T11:59:14;17.60;17.09;
62631;PMS5003;48703;51.248;-0.546;2023-04-03T12:01:49;18.11;16.47;
62631;PMS5003;48703;51.248;-0.546;2023-04-03T12:05:24;17.00;16.89;
62631;PMS5003;48703;51.248;-0.546;2023-04-03T12:08:15;17.20;15.71;
62631;PMS5003;48703;51.248;-0.546;2023-04-03T12:11:14;16.96;14.34;
62631;PMS5003;48703;51.248;-0.546;2023-04-03T12:14:03;16.71;15.47;
62631;PMS5003;48703;51.248;-0.546;2023-04-03T12:16:57;15.73;14.27;
62631;PMS5003;48703;51.248;-0.546;2023-04-03T12:19:59;13.91;13.06;
62631;PMS5003;48703;51.248;-0.546;2023-04-03T12:23:08;16.24;14.70;
62631;PMS5003;48703;51.248;-0.546;2023-04-03T12:26:04;15.70;15.19;
62631;PMS5003;48703;51.248;-0.546;2023-04-03T12:29:10;15.71;15.37;
62631;PMS5003;48703;51.248;-0.546;2023-04-03T12:32:08;15.61;14.49;
62631;PMS5003;48703;51.248;-0.546;2023-04-03T12:35:10;15.20;14.23;
62631;PMS5003;48703;51.248;-0.546;2023-04-03T12:38:33;16.76;15.79;
62631;PMS5003;48703;51.248;-0.546;2023-04-03T12:41:18;15.13;14.64;
62631;PMS5003;48703;51.248;-0.546;2023-04-03T12:44:22;16.47;14.40;
62631;PMS5003;48703;51.248;-0.546;2023-04-03T12:47:22;16.29;15.88;
62631;PMS5003;48703;51.248;-0.546;2023-04-03T12:50:19;15.10;14.33;
62631;PMS5003;48703;51.248;-0.546;2023-04-03T12:53:16;16.46;15.76;
62631;PMS5003;48703;51.248;-0.546;2023-04-03T12:56:23;14.87;14.66;
62631;PMS5003;48703;51.248;-0.546;2023-04-03T12:59:20;13.79;12.97;
62631;PMS5003;48703;51.248;-0.546;2023-04-03T13:02:22;13.87;12.14;
62631;PMS5003;48703;51.248;-0.546;2023-04-03T13:05:22;13.04;13.04;
62631;PMS5003;48703;51.248;-0.546;2023-04-03T13:08:23;14.61;14.04;
62631;PMS5003;48703;51.248;-0.546;2023-04-03T13:11:26;13.49;13.34;
62631;PMS5003;48703;51.248;-0.546;2023-04-03T13:14:27;16.26;14.53;
62631;PMS5003;48703;51.248;-0.546;2023-04-03T13:17:28;14.57;13.89;
62631;PMS5003;48703;51.248;-0.546;2023-04-03T13:20:32;13.53;12.93;
62631;PMS5003;48703;51.248;-0.546;2023-04-03T13:23:32;14.22;13.52;
62631;PMS5003;48703;51.248;-0.546;2023-04-03T13:26:33;11.57;11.34;
62631;PMS5003;48703;51.248;-0.546;2023-04-03T13:29:35;16.54;13.77;
62631;PMS5003;48703;51.248;-0.546;2023-04-03T13:32:35;14.63;13.21;
62631;PMS5003;48703;51.248;-0.546;2023-04-03T13:35:38;13.94;12.73;
62631;PMS5003;48703;51.248;-0.546;2023-04-03T13:38:39;14.19;12.97;
62631;PMS5003;48703;51.248;-0.546;2023-04-03T13:41:41;13.24;12.69;
62631;PMS5003;48703;51.248;-0.546;2023-04-03T13:44:41;14.93;14.21;
62631;PMS5003;48703;51.248;-0.546;2023-04-03T13:47:44;12.39;11.80;
62631;PMS5003;48703;51.248;-0.546;2023-04-03T13:51:02;10.09;10.09;
62631;PMS5003;48703;51.248;-0.546;2023-04-03T13:53:47;12.24;11.40;
62631;PMS5003;48703;51.248;-0.546;2023-04-03T13:56:52;14.06;12.97;
62631;PMS5003;48703;51.248;-0.546;2023-04-03T13:59:49;12.74;11.93;
62631;PMS5003;48703;51.248;-0.546;2023-04-03T14:02:53;12.89;11.86;
62631;PMS5003;48703;51.248;-0.546;2023-04-03T14:05:53;11.14;11.14;
62631;PMS5003;48703;51.248;-0.546;2023-04-03T14:08:54;12.23;12.21;
62631;PMS5003;48703;51.248;-0.546;2023-04-03T14:11:57;11.43;10.87;
62631;PMS5003;48703;51.248;-0.546;2023-04-03T14:14:58;11.67;11.67;
62631;PMS5003;48703;51.248;-0.546;2023-04-03T14:17:59;14.77;14.23;
62631;PMS5003;48703;51.248;-0.546;2023-04-03T14:21:00;14.64;14.63;
62631;PMS5003;48703;51.248;-0.546;2023-04-03T14:24:02;12.24;11.56;
62631;PMS5003;48703;51.248;-0.546;2023-04-03T14:27:05;13.69;12.17;
62631;PMS5003;48703;51.248;-0.546;2023-04-03T14:30:06;11.84;11.63;
62631;PMS5003;48703;51.248;-0.546;2023-04-03T14:33:09;15.44;13.84;
62631;PMS5003;48703;51.248;-0.546;2023-04-03T14:36:11;15.17;14.53;
62631;PMS5003;48703;51.248;-0.546;2023-04-03T14:39:10;15.81;14.63;
62631;PMS5003;48703;51.248;-0.546;2023-04-03T14:42:12;15.79;15.04;
62631;PMS5003;48703;51.248;-0.546;2023-04-03T14:45:13;13.19;12.39;
62631;PMS5003;48703;51.248;-0.546;2023-04-03T14:48:16;14.64;13.71;
62631;PMS5003;48703;51.248;-0.546;2023-04-03T14:51:16;16.10;14.59;
62631;PMS5003;48703;51.248;-0.546;2023-04-03T14:54:19;15.69;15.69;
62631;PMS5003;48703;51.248;-0.546;2023-04-03T14:57:19;15.94;15.22;
62631;PMS5003;48703;51.248;-0.546;2023-04-03T15:00:21;14.79;13.67;
62631;PMS5003;48703;51.248;-0.546;2023-04-03T15:03:22;13.87;13.57;
62631;PMS5003;48703;51.248;-0.546;2023-04-03T15:06:23;13.23;12.87;
62631;PMS5003;48703;51.248;-0.546;2023-04-03T15:09:25;14.19;13.01;
62631;PMS5003;48703;51.248;-0.546;2023-04-03T15:12:26;14.33;12.89;
62631;PMS5003;48703;51.248;-0.546;2023-04-03T15:15:28;12.80;12.49;
62631;PMS5003;48703;51.248;-0.546;2023-04-03T15:18:31;11.97;11.40;
62631;PMS5003;48703;51.248;-0.546;2023-04-03T15:21:32;12.01;10.41;
62631;PMS5003;48703;51.248;-0.546;2023-04-03T15:24:33;10.97;9.96;
62631;PMS5003;48703;51.248;-0.546;2023-04-03T15:27:35;10.71;10.67;
62631;PMS5003;48703;51.248;-0.546;2023-04-03T15:30:36;9.56;9.30;
62631;PMS5003;48703;51.248;-0.546;2023-04-03T15:33:38;10.46;9.99;
62631;PMS5003;48703;51.248;-0.546;2023-04-03T15:36:40;10.13;9.20;
62631;PMS5003;48703;51.248;-0.546;2023-04-03T15:39:41;9.59;9.14;
62631;PMS5003;48703;51.248;-0.546;2023-04-03T15:42:43;10.31;10.31;
62631;PMS5003;48703;51.248;-0.546;2023-04-03T15:45:44;12.06;10.33;
62631;PMS5003;48703;51.248;-0.546;2023-04-03T15:48:46;10.61;9.33;
62631;PMS5003;48703;51.248;-0.546;2023-04-03T15:51:48;7.66;7.26;
62631;PMS5003;48703;51.248;-0.546;2023-04-03T15:54:49;9.51;8.11;
62631;PMS5003;48703;51.248;-0.546;2023-04-03T15:57:51;7.19;6.84;
62631;PMS5003;48703;51.248;-0.546;2023-04-03T16:00:52;11.16;8.01;
62631;PMS5003;48703;51.248;-0.546;2023-04-03T16:03:54;8.79;7.30;
62631;PMS5003;48703;51.248;-0.546;2023-04-03T16:06:55;6.83;6.83;
62631;PMS5003;48703;51.248;-0.546;2023-04-03T16:09:57;7.76;7.24;
62631;PMS5003;48703;51.248;-0.546;2023-04-03T16:12:59;7.19;6.36;
62631;PMS5003;48703;51.248;-0.546;2023-04-03T16:16:00;6.63;6.10;
62631;PMS5003;48703;51.248;-0.546;2023-04-03T16:19:02;7.16;6.67;
62631;PMS5003;48703;51.248;-0.546;2023-04-03T16:22:03;6.60;6.60;
62631;PMS5003;48703;51.248;-0.546;2023-04-03T16:25:05;9.23;9.23;
62631;PMS5003;48703;51.248;-0.546;2023-04-03T16:28:06;8.81;7.81;
62631;PMS5003;48703;51.248;-0.546;2023-04-03T16:31:08;8.60;7.10;
62631;PMS5003;48703;51.248;-0.546;2023-04-03T16:34:09;9.10;8.79;
62631;PMS5003;48703;51.248;-0.546;2023-04-03T16:37:11;9.03;7.96;
62631;PMS5003;48703;51.248;-0.546;2023-04-03T16:40:13;8.77;8.77;
62631;PMS5003;48703;51.248;-0.546;2023-04-03T16:43:14;8.24;7.26;
62631;PMS5003;48703;51.248;-0.546;2023-04-03T16:46:16;8.49;8.09;
62631;PMS5003;48703;51.248;-0.546;2023-04-03T16:49:17;8.13;8.00;
62631;PMS5003;48703;51.248;-0.546;2023-04-03T16:52:19;8.64;7.91;
62631;PMS5003;48703;51.248;-0.546;2023-04-03T16:55:20;10.36;10.36;
62631;PMS5003;48703;51.248;-0.546;2023-04-03T16:58:22;10.14;9.63;
62631;PMS5003;48703;51.248;-0.546;2023-04-03T17:01:24;10.04;9.24;
62631;PMS5003;48703;51.248;-0.546;2023-04-03T17:04:25;9.66;9.47;
62631;PMS5003;48703;51.248;-0.546;2023-04-03T17:07:27;13.07;10.41;
62631;PMS5003;48703;51.248;-0.546;2023-04-03T17:10:28;11.23;10.14;
62631;PMS5003;48703;51.248;-0.546;2023-04-03T17:13:30;10.94;10.94;
62631;PMS5003;48703;51.248;-0.546;2023-04-03T17:16:32;10.06;9.27;
62631;PMS5003;48703;51.248;-0.546;2023-04-03T17:19:33;13.32;12.23;
62631;PMS5003;48703;51.248;-0.546;2023-04-03T17:22:34;12.63;11.13;
62631;PMS5003;48703;51.248;-0.546;2023-04-03T17:25:36;12.54;10.59;
62631;PMS5003;48703;51.248;-0.546;2023-04-03T17:28:38;10.70;9.33;
62631;PMS5003;48703;51.248;-0.546;2023-04-03T17:31:39;9.40;8.69;
62631;PMS5003;48703;51.248;-0.546;2023-04-03T17:34:41;10.90;9.19;
62631;PMS5003;48703;51.248;-0.546;2023-04-03T17:37:43;9.40;8.59;
62631;PMS5003;48703;51.248;-0.546;2023-04-03T17:40:44;9.26;8.04;
62631;PMS5003;48703;51.248;-0.546;2023-04-03T17:43:46;7.50;7.11;
62631;PMS5003;48703;51.248;-0.546;2023-04-03T17:46:48;5.70;5.31;
62631;PMS5003;48703;51.248;-0.546;2023-04-03T17:49:49;7.03;6.73;
62631;PMS5003;48703;51.248;-0.546;2023-04-03T17:52:51;6.50;5.90;
62631;PMS5003;48703;51.248;-0.546;2023-04-03T17:55:52;7.27;5.59;
62631;PMS5003;48703;51.248;-0.546;2023-04-03T17:58:55;7.11;6.39;
62631;PMS5003;48703;51.248;-0.546;2023-04-03T18:01:56;7.67;6.60;
62631;PMS5003;48703;51.248;-0.546;2023-04-03T18:04:58;7.26;6.34;
62631;PMS5003;48703;51.248;-0.546;2023-04-03T18:07:59;7.70;7.13;
62631;PMS5003;48703;51.248;-0.546;2023-04-03T18:11:01;8.70;7.96;
62631;PMS5003;48703;51.248;-0.546;2023-04-03T18:14:03;7.87;7.87;
62631;PMS5003;48703;51.248;-0.546;2023-04-03T18:17:04;8.69;7.37;